createdAt,value
2023-07-25T05:01:18.662Z,94296.00
2023-07-25T05:02:18.686Z,94278.00
2023-07-25T05:03:18.923Z,94270.00
2023-07-25T05:04:18.778Z,94267.00
2023-07-25T05:05:18.807Z,94267.00
2023-07-25T05:06:18.899Z,94263.00
2023-07-25T05:07:18.855Z,94261.00
2023-07-25T05:08:18.874Z,94261.00
2023-07-25T05:09:18.906Z,94259.00
2023-07-25T05:10:18.911Z,94251.00
2023-07-25T05:11:18.939Z,94239.00
2023-07-25T05:12:18.966Z,94227.00
2023-07-25T05:13:19.045Z,94215.00
2023-07-25T05:14:19.081Z,94200.00
2023-07-25T05:15:19.159Z,94178.00
2023-07-25T05:16:19.227Z,94155.00
2023-07-25T05:17:19.256Z,94125.00
2023-07-25T05:18:19.327Z,94102.00
2023-07-25T05:19:19.363Z,94076.00
2023-07-25T05:20:19.410Z,94055.00
2023-07-25T05:21:19.459Z,94045.00
2023-07-25T05:22:19.515Z,94045.00
2023-07-25T05:23:19.552Z,94055.00
2023-07-25T05:24:19.592Z,94074.00
2023-07-25T05:25:19.645Z,94088.00
2023-07-25T05:26:19.674Z,94102.00
2023-07-25T05:27:19.735Z,94106.00
2023-07-25T05:28:19.775Z,94110.00
2023-07-25T05:29:19.792Z,94116.00
2023-07-25T05:30:19.890Z,94121.00
2023-07-25T05:31:19.927Z,94125.00
2023-07-25T05:32:19.916Z,94127.00
2023-07-25T05:33:19.980Z,94125.00
2023-07-25T05:34:19.999Z,94127.00
2023-07-25T05:35:20.039Z,94125.00
2023-07-25T05:36:20.066Z,94125.00
2023-07-25T05:37:20.137Z,94123.00
2023-07-25T05:38:20.139Z,94123.00
2023-07-25T05:39:20.204Z,94120.00
2023-07-25T05:40:20.227Z,94120.00
2023-07-25T05:41:20.295Z,94120.00
2023-07-25T05:42:20.348Z,94120.00
2023-07-25T05:43:20.344Z,94120.00
2023-07-25T05:44:20.372Z,94123.00
2023-07-25T05:45:20.431Z,94125.00
2023-07-25T05:46:20.476Z,94127.00
2023-07-25T05:47:20.495Z,94127.00
2023-07-25T05:48:20.545Z,94123.00
2023-07-25T05:49:20.602Z,94120.00
2023-07-25T05:50:20.615Z,94114.00
2023-07-25T05:51:20.650Z,94108.00
2023-07-25T05:52:20.687Z,94102.00
2023-07-25T05:53:20.747Z,94100.00
2023-07-25T05:54:20.812Z,94102.00
2023-07-25T05:55:20.837Z,94098.00
2023-07-25T05:56:20.912Z,94096.00
2023-07-25T05:57:20.909Z,94098.00
2023-07-25T05:58:20.952Z,94102.00
2023-07-25T05:59:21.001Z,94108.00
2023-07-25T06:00:22.535Z,94112.00
2023-07-25T06:01:21.124Z,94116.00
2023-07-25T06:02:21.143Z,94114.00
2023-07-25T06:03:21.151Z,94118.00
2023-07-25T06:04:21.169Z,94121.00
2023-07-25T06:05:21.269Z,94120.00
2023-07-25T06:06:21.290Z,94120.00
2023-07-25T06:07:23.887Z,94123.00
2023-07-25T06:08:21.335Z,94127.00
2023-07-25T06:09:21.342Z,94135.00
2023-07-25T06:10:21.310Z,94127.00
2023-07-25T06:11:21.309Z,94123.00
2023-07-25T06:12:21.265Z,94118.00
2023-07-25T06:13:21.357Z,94114.00
2023-07-25T06:14:21.258Z,94108.00
2023-07-25T06:15:21.254Z,94102.00
2023-07-25T06:16:21.336Z,94098.00
2023-07-25T06:17:21.294Z,94094.00
2023-07-25T06:18:21.274Z,94090.00
2023-07-25T06:19:21.234Z,94088.00
2023-07-25T06:20:21.222Z,94088.00
2023-07-25T06:21:21.229Z,94090.00
2023-07-25T06:22:21.200Z,94092.00
2023-07-25T06:23:21.205Z,94094.00
2023-07-25T06:24:21.254Z,94094.00
2023-07-25T06:25:21.194Z,94092.00
2023-07-25T06:26:21.177Z,94096.00
2023-07-25T06:27:21.179Z,94096.00
2023-07-25T06:28:21.161Z,94100.00
2023-07-25T06:29:21.196Z,94100.00
2023-07-25T06:30:21.171Z,94096.00
2023-07-25T06:31:21.207Z,94096.00
2023-07-25T06:32:21.158Z,94096.00
2023-07-25T06:33:21.160Z,94096.00
2023-07-25T06:34:21.171Z,94098.00
2023-07-25T06:35:21.129Z,94100.00
2023-07-25T06:36:21.164Z,94104.00
2023-07-25T06:37:21.098Z,94102.00
2023-07-25T06:38:21.123Z,94100.00
2023-07-25T06:39:21.103Z,94102.00
2023-07-25T06:40:21.108Z,94102.00
2023-07-25T06:41:21.110Z,94106.00
2023-07-25T06:42:21.066Z,94108.00
2023-07-25T06:43:21.093Z,94116.00
2023-07-25T06:44:21.067Z,94118.00
2023-07-25T06:45:21.073Z,94123.00
2023-07-25T06:46:21.084Z,94127.00
2023-07-25T06:47:21.079Z,94139.00
2023-07-25T06:48:21.066Z,94145.00
2023-07-25T06:49:21.019Z,94145.00
2023-07-25T06:50:21.035Z,94143.00
2023-07-25T06:51:21.009Z,94141.00
2023-07-25T06:52:21.015Z,94135.00
2023-07-25T06:53:21.019Z,94127.00
2023-07-25T06:54:21.021Z,94125.00
2023-07-25T06:55:21.004Z,94118.00
2023-07-25T06:56:21.002Z,94118.00
2023-07-25T06:57:20.963Z,94114.00
2023-07-25T06:58:20.993Z,94112.00
2023-07-25T06:59:20.988Z,94114.00
2023-07-25T07:00:20.994Z,94110.00
2023-07-25T07:01:21.030Z,94110.00
2023-07-25T07:02:21.065Z,94104.00
2023-07-25T07:03:21.064Z,94096.00
2023-07-25T07:04:21.001Z,94096.00
2023-07-25T07:05:29.444Z,94094.00
2023-07-25T07:06:22.089Z,94094.00
2023-07-25T07:07:21.052Z,94096.00
2023-07-25T07:08:21.060Z,94098.00
2023-07-25T07:09:21.058Z,94098.00
2023-07-25T07:10:21.032Z,94100.00
2023-07-25T07:11:21.011Z,94094.00
2023-07-25T07:12:21.029Z,94092.00
2023-07-25T07:13:20.991Z,94090.00
2023-07-25T07:14:21.000Z,94086.00
2023-07-25T07:15:21.007Z,94090.00
2023-07-25T07:16:21.010Z,94094.00
2023-07-25T07:17:21.037Z,94094.00
2023-07-25T07:18:21.079Z,94098.00
2023-07-25T07:19:21.139Z,94098.00
2023-07-25T07:20:21.164Z,94104.00
2023-07-25T07:21:21.207Z,94104.00
2023-07-25T07:22:21.234Z,94102.00
2023-07-25T07:23:21.271Z,94096.00
2023-07-25T07:24:21.337Z,94094.00
2023-07-25T07:25:21.344Z,94092.00
2023-07-25T07:26:21.405Z,94090.00
2023-07-25T07:27:21.419Z,94088.00
2023-07-25T07:28:21.445Z,94082.00
2023-07-25T07:29:21.521Z,94080.00
2023-07-25T07:30:21.521Z,94078.00
2023-07-25T07:31:21.570Z,94074.00
2023-07-25T07:32:21.652Z,94076.00
2023-07-25T07:33:21.686Z,94074.00
2023-07-25T07:34:21.690Z,94073.00
2023-07-25T07:35:21.730Z,94069.00
2023-07-25T07:36:21.777Z,94063.00
2023-07-25T07:37:21.793Z,94067.00
2023-07-25T07:38:21.822Z,94069.00
2023-07-25T07:39:21.894Z,94076.00
2023-07-25T07:40:21.883Z,94082.00
2023-07-25T07:41:21.929Z,94084.00
2023-07-25T07:42:22.007Z,94090.00
2023-07-25T07:43:22.032Z,94090.00
2023-07-25T07:44:23.132Z,94094.00
2023-07-25T07:45:22.035Z,94098.00
2023-07-25T07:46:22.037Z,94098.00
2023-07-25T07:47:22.076Z,94096.00
2023-07-25T07:48:22.041Z,94096.00
2023-07-25T07:49:21.991Z,94096.00
2023-07-25T07:50:22.025Z,94092.00
2023-07-25T07:51:22.006Z,94092.00
2023-07-25T07:52:33.186Z,94092.00
2023-07-25T07:53:23.007Z,94094.00
2023-07-25T07:54:21.983Z,94098.00
2023-07-25T07:55:21.957Z,94102.00
2023-07-25T07:56:21.964Z,94108.00
2023-07-25T07:57:21.967Z,94108.00
2023-07-25T07:58:21.988Z,94114.00
2023-07-25T07:59:21.916Z,94116.00
2023-07-25T08:00:21.928Z,94118.00
2023-07-25T08:01:21.992Z,94114.00
2023-07-25T08:02:22.000Z,94114.00
2023-07-25T08:03:21.940Z,94118.00
